Terminal Aerodrome Forecast
Issued by NWS

Home | Current Version | Previous Version | Text Only | Print | Product List | Glossary On
Versions: 1 2 3 4 5 6 7 8 9 10 11 12 13 14 15 16 17 18 19 20 21 22 23 24 25 26 27 28 29 30 31 32 33 34 35 36 37 38 39 40 41 42 43 44 45 46 47 48 49 50
000
FTAK31 PAFA 060531
TAFATA
TAF
PATA 060531Z 0606/0706 25004KT 3SM -SN BR FEW009 SCT015 OVC025
     FM061400 11004KT P6SM VCSH SCT030 OVC060
     FM062000 11007KT P6SM SCT015 OVC025
     FM070100 09007KT 4SM -SN BR SCT015 OVC025
     FM070500 10007KT 1SM -SN BR SCT007 OVC015=

USA.gov is the U.S. government's official web portal to all federal, state and local government web resources and services.